Time;durP1;ratioP1;P1;durP2;ratioP2;P2;SDS_P1;SDS_P2;PMS_P1;PMS_P2;Temp;Humidity;BMP_temperature;BMP_pressure;BME280_temperature;BME280_humidity;BME280_pressure;Samples;Min_cycle;Max_cycle;Signal;HPM_P1;HPM_P2
2022/05/29 00:00:15;;;;;;;;;;;10.10;1.00;;;;;;10290556;28;83620;-51
2022/05/29 00:05:16;;;;;;;;;;;10.10;1.00;;;;;;10291177;28;83344;-47
2022/05/29 00:10:17;;;;;;;;;;;10.10;1.00;;;;;;10290643;28;84049;-45
2022/05/29 00:15:18;;;;;;;;;;;10.10;1.00;;;;;;10290674;28;83944;-52
2022/05/29 00:20:18;;;;;;;;;;;10.10;1.00;;;;;;10271472;28;84090;-47
2022/05/29 00:25:19;;;;;;;;;;;10.10;1.00;;;;;;10271591;28;86032;-48
2022/05/29 00:30:19;;;;;;;;;;;10.10;1.00;;;;;;10271534;28;85227;-48
2022/05/29 00:35:20;;;;;;;;;;;10.00;1.00;;;;;;10290009;28;84019;-45
2022/05/29 00:40:20;;;;;;;;;;;10.00;1.00;;;;;;10288420;28;83894;-45
2022/05/29 00:45:21;;;;;;;;;;;10.00;1.00;;;;;;10288230;28;84321;-44
2022/05/29 00:50:22;;;;;;;;;;;10.00;1.00;;;;;;10287622;28;83795;-46
2022/05/29 00:55:24;;;;;;;;;;;9.90;1.00;;;;;;10288583;28;84135;-46
2022/05/29 01:00:26;;;;;;;;;;;9.90;1.00;;;;;;10269389;28;85553;-45
2022/05/29 01:05:29;;;;;;;;;;;9.90;1.00;;;;;;10287625;28;83854;-46
2022/05/29 01:10:44;;;;;;;;;;;9.90;1.00;;;;;;10296297;28;83952;-44
2022/05/29 01:15:51;;;;;;;;;;;10.00;1.00;;;;;;10327419;28;84249;-45
2022/05/29 01:21:00;;;;;;;;;;;10.00;1.00;;;;;;10327285;28;83868;-48
2022/05/29 01:26:09;;;;;;;;;;;10.10;1.00;;;;;;10308973;28;83853;-47
2022/05/29 01:31:22;;;;;;;;;;;10.00;1.00;;;;;;10305943;28;83879;-45
2022/05/29 01:36:29;;;;;;;;;;;10.10;1.00;;;;;;10307857;28;84066;-45
2022/05/29 01:41:33;;;;;;;;;;;10.00;1.00;;;;;;10323174;28;83785;-47
2022/05/29 01:46:35;;;;;;;;;;;10.00;1.00;;;;;;10325150;28;83748;-47
2022/05/29 01:51:41;;;;;;;;;;;9.90;1.00;;;;;;10308192;28;85200;-50
2022/05/29 01:56:46;;;;;;;;;;;9.90;1.00;;;;;;10294356;28;83812;-45
2022/05/29 02:01:54;;;;;;;;;;;9.80;1.00;;;;;;10285684;28;83744;-44
2022/05/29 02:12:17;;;;;;;;;;;9.60;1.00;;;;;;10285640;28;83733;-43
2022/05/29 02:17:20;;;;;;;;;;;9.60;1.00;;;;;;10284239;28;84556;-45
2022/05/29 02:22:25;;;;;;;;;;;9.40;33.30;;;;;;10283830;28;84122;-49
2022/05/29 02:27:31;;;;;;;;;;;9.30;64.40;;;;;;10287394;28;84115;-46
2022/05/29 02:32:50;;;;;;;;;;;9.20;65.10;;;;;;10324877;28;84135;-45
2022/05/29 02:37:56;;;;;;;;;;;9.20;73.30;;;;;;10324422;28;84060;-43
2022/05/29 02:43:02;;;;;;;;;;;9.10;91.50;;;;;;10301757;22;85542;-49
2022/05/29 02:48:22;;;;;;;;;;;9.10;98.70;;;;;;10327290;28;84109;-49
2022/05/29 02:53:24;;;;;;;;;;;9.00;99.90;;;;;;10332792;28;83663;-52
2022/05/29 02:58:27;;;;;;;;;;;8.90;99.90;;;;;;10330485;28;83640;-49
2022/05/29 03:03:30;;;;;;;;;;;8.90;99.90;;;;;;10313027;28;84342;-49
2022/05/29 03:08:31;;;;;;;;;;;8.90;99.90;;;;;;10331147;28;83626;-51
2022/05/29 03:13:46;;;;;;;;;;;8.80;99.90;;;;;;10331543;28;83344;-51
2022/05/29 03:19:07;;;;;;;;;;;8.90;99.90;;;;;;10331226;28;84019;-49
2022/05/29 03:24:08;;;;;;;;;;;8.90;99.90;;;;;;10296430;28;86345;-48
2022/05/29 03:29:16;;;;;;;;;;;8.90;99.90;;;;;;10330964;28;83791;-51
2022/05/29 03:34:16;;;;;;;;;;;9.00;99.90;;;;;;10328598;28;84172;-49
2022/05/29 03:39:17;;;;;;;;;;;8.90;99.90;;;;;;10329647;28;84104;-52
2022/05/29 03:44:19;;;;;;;;;;;9.00;99.90;;;;;;10329765;28;83263;-49
2022/05/29 03:49:21;;;;;;;;;;;9.00;99.90;;;;;;10311662;28;85202;-52
2022/05/29 03:54:21;;;;;;;;;;;9.00;99.90;;;;;;10329892;28;83319;-49
2022/05/29 03:59:22;;;;;;;;;;;9.00;99.90;;;;;;10329426;28;84338;-51
2022/05/29 04:04:22;;;;;;;;;;;9.10;99.90;;;;;;10330009;28;83771;-51
2022/05/29 04:14:43;;;;;;;;;;;9.20;99.90;;;;;;10329868;28;83297;-52
2022/05/29 04:19:44;;;;;;;;;;;9.30;99.90;;;;;;10328678;28;84092;-49
2022/05/29 04:24:45;;;;;;;;;;;9.30;99.90;;;;;;10311903;28;84028;-52
2022/05/29 04:29:45;;;;;;;;;;;9.40;99.90;;;;;;10328563;28;83221;-48
2022/05/29 04:34:46;;;;;;;;;;;9.50;99.90;;;;;;10329333;28;83998;-49
2022/05/29 04:39:46;;;;;;;;;;;9.40;99.90;;;;;;10328048;28;83732;-50
2022/05/29 04:44:47;;;;;;;;;;;9.40;99.90;;;;;;10327944;28;83864;-48
2022/05/29 04:49:48;;;;;;;;;;;9.60;99.90;;;;;;10327822;28;83728;-51
2022/05/29 04:54:48;;;;;;;;;;;9.60;99.90;;;;;;10328911;28;84974;-52
2022/05/29 04:59:49;;;;;;;;;;;9.70;99.90;;;;;;10309335;28;85277;-49
2022/05/29 05:04:49;;;;;;;;;;;9.70;99.90;;;;;;10328048;28;84199;-48
2022/05/29 05:09:50;;;;;;;;;;;9.70;99.90;;;;;;10327218;28;83767;-49
2022/05/29 05:14:50;;;;;;;;;;;9.80;99.90;;;;;;10326182;28;83727;-49
2022/05/29 05:19:51;;;;;;;;;;;9.80;99.90;;;;;;10326484;28;84164;-48
2022/05/29 05:24:51;;;;;;;;;;;10.00;99.90;;;;;;10327750;28;83741;-48
2022/05/29 05:29:52;;;;;;;;;;;10.20;99.90;;;;;;10327231;28;83704;-53
2022/05/29 05:34:53;;;;;;;;;;;10.30;99.90;;;;;;10329736;28;83319;-50
2022/05/29 05:39:53;;;;;;;;;;;10.40;99.90;;;;;;10291985;28;84148;-50
2022/05/29 05:44:54;;;;;;;;;;;10.60;99.90;;;;;;10308769;28;86191;-49
2022/05/29 05:49:54;;;;;;;;;;;10.70;99.90;;;;;;10326386;28;83686;-51
2022/05/29 05:54:55;;;;;;;;;;;10.90;99.90;;;;;;10326839;28;83430;-52
2022/05/29 05:59:55;;;;;;;;;;;11.00;99.90;;;;;;10325963;28;83225;-54
2022/05/29 06:04:56;;;;;;;;;;;11.10;99.90;;;;;;10327177;28;84100;-49
2022/05/29 06:09:56;;;;;;;;;;;11.20;99.90;;;;;;10308309;28;84006;-49
2022/05/29 06:14:58;;;;;;;;;;;11.30;56.50;;;;;;10326302;28;83909;-50
2022/05/29 06:19:59;;;;;;;;;;;11.30;51.10;;;;;;10325196;28;84077;-50
2022/05/29 06:25:01;;;;;;;;;;;11.40;43.40;;;;;;10330022;28;83829;-50
2022/05/29 06:30:02;;;;;;;;;;;11.40;35.60;;;;;;10314582;28;83738;-50
2022/05/29 06:35:03;;;;;;;;;;;11.30;44.40;;;;;;10332764;28;84080;-53
2022/05/29 06:40:04;;;;;;;;;;;11.20;45.60;;;;;;10332826;28;84143;-49
2022/05/29 06:45:06;;;;;;;;;;;11.20;92.10;;;;;;10332254;28;84008;-51
2022/05/29 06:50:07;;;;;;;;;;;11.30;92.40;;;;;;10332120;28;85459;-50
2022/05/29 06:55:08;;;;;;;;;;;11.30;99.90;;;;;;10331975;28;84488;-51
2022/05/29 07:10:38;;;;;;;;;;;11.30;99.90;;;;;;10331969;28;83830;-51
2022/05/29 07:15:39;;;;;;;;;;;11.40;99.90;;;;;;10332442;28;83302;-49
2022/05/29 07:20:39;;;;;;;;;;;11.40;99.90;;;;;;10313884;28;85101;-53
2022/05/29 07:25:40;;;;;;;;;;;11.40;99.90;;;;;;10331907;28;83239;-52
2022/05/29 07:30:41;;;;;;;;;;;11.60;99.90;;;;;;10333615;28;83365;-53
2022/05/29 07:35:41;;;;;;;;;;;11.90;62.70;;;;;;10314651;28;84160;-52
2022/05/29 07:40:42;;;;;;;;;;;12.10;14.50;;;;;;10331491;28;84076;-52
2022/05/29 07:45:43;;;;;;;;;;;12.20;1.00;;;;;;10330315;28;84167;-49
2022/05/29 07:50:43;;;;;;;;;;;12.40;1.00;;;;;;10330098;28;83707;-50
2022/05/29 07:55:44;;;;;;;;;;;12.50;1.00;;;;;;10330784;28;84482;-53
2022/05/29 08:00:44;;;;;;;;;;;12.60;1.00;;;;;;10330494;28;84058;-54
2022/05/29 08:05:45;;;;;;;;;;;12.70;1.00;;;;;;10332376;28;83287;-50
2022/05/29 08:10:45;;;;;;;;;;;12.40;1.00;;;;;;10330034;28;84147;-53
2022/05/29 08:15:46;;;;;;;;;;;12.50;1.00;;;;;;10312938;28;83495;-54
2022/05/29 08:20:47;;;;;;;;;;;12.90;1.00;;;;;;10337157;28;84071;-54
2022/05/29 08:31:14;;;;;;;;;;;14.30;1.00;;;;;;10314444;28;84199;-53
2022/05/29 08:36:19;;;;;;;;;;;14.20;1.00;;;;;;10328854;28;84175;-53
2022/05/29 08:41:22;;;;;;;;;;;14.10;1.00;;;;;;10352108;28;83222;-55
2022/05/29 08:46:30;;;;;;;;;;;13.60;1.00;;;;;;10343983;22;83579;-46
2022/05/29 08:51:39;;;;;;;;;;;13.20;1.00;;;;;;10326847;28;84193;-47
2022/05/29 08:56:45;;;;;;;;;;;13.40;1.00;;;;;;10361605;28;83983;-45
2022/05/29 09:01:55;;;;;;;;;;;13.80;1.00;;;;;;10366603;28;84062;-47
2022/05/29 09:06:57;;;;;;;;;;;14.50;1.00;;;;;;10326824;28;83874;-52
2022/05/29 09:12:00;;;;;;;;;;;15.10;99.90;;;;;;10326791;28;83288;-48
2022/05/29 09:17:03;;;;;;;;;;;14.90;99.90;;;;;;10329477;28;86250;-48
2022/05/29 09:22:21;;;;;;;;;;;15.90;1.00;;;;;;10367087;28;105027;-45
2022/05/29 09:27:22;;;;;;;;;;;16.00;1.00;;;;;;10368388;28;83662;-50
2022/05/29 09:32:27;;;;;;;;;;;15.70;99.90;;;;;;10365933;28;85038;-50
2022/05/29 09:37:33;;;;;;;;;;;16.10;99.90;;;;;;10334780;28;84134;-45
2022/05/29 09:42:37;;;;;;;;;;;15.70;99.90;;;;;;10326136;28;84034;-47
2022/05/29 09:52:59;;;;;;;;;;;15.60;1.00;;;;;;10325200;28;85898;-49
2022/05/29 09:58:04;;;;;;;;;;;15.00;99.90;;;;;;10350200;28;83687;-45
2022/05/29 10:03:07;;;;;;;;;;;14.50;1.00;;;;;;10338823;28;83829;-46
2022/05/29 10:08:19;;;;;;;;;;;14.40;1.00;;;;;;10353213;28;83824;-45
2022/05/29 10:13:36;;;;;;;;;;;14.10;1.00;;;;;;10349375;28;84155;-51
2022/05/29 10:18:38;;;;;;;;;;;13.80;1.00;;;;;;10351030;28;83239;-50
2022/05/29 10:23:40;;;;;;;;;;;14.00;1.00;;;;;;10351154;28;83850;-45
2022/05/29 10:28:41;;;;;;;;;;;14.00;99.90;;;;;;10351212;28;84179;-47
2022/05/29 10:33:58;;;;;;;;;;;14.50;99.90;;;;;;10351351;28;83795;-50
2022/05/29 10:39:05;;;;;;;;;;;15.10;1.00;;;;;;10350742;28;83753;-46
2022/05/29 10:44:09;;;;;;;;;;;15.70;1.00;;;;;;10357928;28;83959;-46
2022/05/29 10:49:18;;;;;;;;;;;15.90;99.90;;;;;;10364144;28;85142;-50
2022/05/29 10:54:40;;;;;;;;;;;15.70;99.90;;;;;;10353488;28;86127;-51
2022/05/29 11:00:00;;;;;;;;;;;15.70;99.90;;;;;;10350704;28;83657;-47
2022/05/29 11:05:11;;;;;;;;;;;15.50;1.00;;;;;;10349747;28;83864;-47
2022/05/29 11:10:30;;;;;;;;;;;16.00;1.00;;;;;;10350159;28;84133;-49
2022/05/29 11:15:36;;;;;;;;;;;15.90;1.00;;;;;;10358818;28;83986;-56
2022/05/29 11:20:46;;;;;;;;;;;16.20;1.00;;;;;;10377701;28;84163;-60
2022/05/29 11:25:53;;;;;;;;;;;16.50;1.00;;;;;;10358086;28;86553;-47
2022/05/29 11:30:58;;;;;;;;;;;16.30;99.90;;;;;;10357517;28;84454;-46
2022/05/29 11:36:11;;;;;;;;;;;16.40;99.90;;;;;;10340101;28;85025;-47
2022/05/29 11:41:16;;;;;;;;;;;17.00;99.90;;;;;;10357640;28;84296;-46
2022/05/29 11:51:48;;;;;;;;;;;16.80;1.00;;;;;;10362657;28;84139;-47
2022/05/29 11:56:54;;;;;;;;;;;16.30;1.00;;;;;;10359097;28;83875;-48
2022/05/29 12:02:04;;;;;;;;;;;16.10;1.00;;;;;;10359742;28;83905;-48
2022/05/29 12:07:13;;;;;;;;;;;15.80;1.00;;;;;;10337117;28;83753;-47
2022/05/29 12:12:17;;;;;;;;;;;15.60;1.00;;;;;;10361110;28;83958;-47
2022/05/29 12:17:21;;;;;;;;;;;15.70;99.90;;;;;;10355403;28;86893;-48
2022/05/29 12:22:25;;;;;;;;;;;15.60;1.00;;;;;;10344702;28;83661;-45
2022/05/29 12:27:27;;;;;;;;;;;15.60;99.90;;;;;;10339628;28;84378;-44
2022/05/29 12:32:30;;;;;;;;;;;15.90;1.00;;;;;;10339560;28;84529;-47
2022/05/29 12:37:30;;;;;;;;;;;15.90;1.00;;;;;;10339677;28;83943;-48
2022/05/29 12:42:54;;;;;;;;;;;15.90;1.00;;;;;;10339742;28;84556;-46
2022/05/29 12:48:07;;;;;;;;;;;16.20;1.00;;;;;;10338184;28;83620;-51
2022/05/29 12:53:21;;;;;;;;;;;16.50;99.90;;;;;;10344792;28;83510;-48
2022/05/29 12:58:40;;;;;;;;;;;16.30;1.00;;;;;;10351262;28;83614;-43
2022/05/29 13:03:46;;;;;;;;;;;15.60;1.00;;;;;;10346389;28;84032;-48
2022/05/29 13:08:53;;;;;;;;;;;15.10;1.00;;;;;;10347289;28;83905;-47
2022/05/29 13:13:57;;;;;;;;;;;15.10;99.90;;;;;;10347562;28;83760;-45
2022/05/29 13:24:15;;;;;;;;;;;15.50;99.90;;;;;;10346491;28;84200;-42
2022/05/29 13:29:35;;;;;;;;;;;15.70;1.00;;;;;;10329294;28;85082;-47
2022/05/29 13:34:35;;;;;;;;;;;15.90;1.00;;;;;;10344297;28;84405;-49
2022/05/29 13:39:39;;;;;;;;;;;16.70;1.00;;;;;;10345140;28;84149;-48
2022/05/29 13:44:41;;;;;;;;;;;18.00;1.00;;;;;;10347619;28;83854;-44
2022/05/29 13:49:43;;;;;;;;;;;18.10;1.00;;;;;;10345497;28;84000;-49
2022/05/29 13:54:58;;;;;;;;;;;17.80;99.90;;;;;;10345576;28;84009;-47
2022/05/29 14:05:29;;;;;;;;;;;17.30;1.00;;;;;;10340838;28;84137;-47
2022/05/29 14:10:30;;;;;;;;;;;17.30;99.90;;;;;;10349508;28;83880;-47
2022/05/29 14:15:31;;;;;;;;;;;16.70;1.00;;;;;;10346035;28;83886;-47
2022/05/29 14:20:33;;;;;;;;;;;16.00;1.00;;;;;;10346094;28;83960;-47
2022/05/29 14:25:58;;;;;;;;;;;16.20;1.00;;;;;;10343650;28;84510;-45
2022/05/29 14:31:18;;;;;;;;;;;16.20;1.00;;;;;;10346113;28;83777;-46
2022/05/29 14:36:30;;;;;;;;;;;16.30;99.90;;;;;;10345124;28;85037;-44
2022/05/29 14:41:32;;;;;;;;;;;16.10;92.50;;;;;;10343304;28;83837;-46
2022/05/29 14:51:42;;;;;;;;;;;16.10;99.90;;;;;;10295136;28;83965;-51
2022/05/29 14:56:52;;;;;;;;;;;15.80;1.00;;;;;;10242615;28;86527;-53
2022/05/29 15:01:54;;;;;;;;;;;16.00;99.90;;;;;;10253472;28;83495;-55
2022/05/29 15:12:21;;;;;;;;;;;15.50;1.00;;;;;;10252952;28;84834;-51
2022/05/29 15:17:22;;;;;;;;;;;15.70;27.10;;;;;;10236028;28;86093;-55
2022/05/29 15:27:45;;;;;;;;;;;16.20;1.00;;;;;;10220686;28;83981;-52
2022/05/29 15:32:48;;;;;;;;;;;16.40;1.00;;;;;;10254573;28;84182;-52
2022/05/29 15:38:08;;;;;;;;;;;16.10;1.00;;;;;;10254716;28;84017;-50
2022/05/29 15:43:20;;;;;;;;;;;15.70;1.00;;;;;;10244565;28;85028;-51
2022/05/29 15:48:32;;;;;;;;;;;15.80;17.00;;;;;;10250693;28;85851;-51
2022/05/29 15:53:36;;;;;;;;;;;15.80;93.60;;;;;;10247809;28;83169;-50
2022/05/29 15:58:46;;;;;;;;;;;15.90;1.00;;;;;;10249671;28;83701;-53
2022/05/29 16:03:47;;;;;;;;;;;15.80;99.90;;;;;;10230010;28;84086;-52
2022/05/29 16:08:49;;;;;;;;;;;15.80;1.00;;;;;;10248202;28;85232;-51
2022/05/29 16:13:52;;;;;;;;;;;15.80;1.00;;;;;;10250113;28;84104;-53
2022/05/29 16:19:14;;;;;;;;;;;15.50;1.00;;;;;;10247577;28;84158;-50
2022/05/29 16:24:29;;;;;;;;;;;15.30;1.00;;;;;;10248188;28;84077;-51
2022/05/29 16:29:58;;;;;;;;;;;15.30;99.90;;;;;;10259356;28;85138;-54
2022/05/29 16:34:58;;;;;;;;;;;15.10;1.00;;;;;;10255295;28;84214;-52
2022/05/29 16:50:40;;;;;;;;;;;14.90;1.00;;;;;;10246591;28;84023;-53
2022/05/29 16:56:01;;;;;;;;;;;14.90;1.00;;;;;;10230942;28;83412;-53
2022/05/29 17:01:17;;;;;;;;;;;14.90;1.00;;;;;;10215431;28;86367;-50
2022/05/29 17:06:21;;;;;;;;;;;14.70;1.00;;;;;;10246680;28;84239;-51
2022/05/29 17:11:23;;;;;;;;;;;14.70;1.00;;;;;;10243611;28;83389;-52
2022/05/29 17:16:23;;;;;;;;;;;14.60;99.90;;;;;;10242262;28;83469;-50
2022/05/29 17:21:25;;;;;;;;;;;14.60;1.00;;;;;;10243142;28;83899;-51
2022/05/29 17:26:28;;;;;;;;;;;14.50;1.00;;;;;;10247135;28;84107;-50
2022/05/29 17:31:35;;;;;;;;;;;14.40;1.00;;;;;;10244950;28;84315;-54
2022/05/29 17:36:46;;;;;;;;;;;14.30;1.00;;;;;;10245528;28;83496;-51
2022/05/29 17:41:47;;;;;;;;;;;14.10;99.90;;;;;;10241569;28;85207;-53
2022/05/29 17:46:47;;;;;;;;;;;13.80;99.90;;;;;;10229661;28;84401;-55
2022/05/29 17:52:08;;;;;;;;;;;13.70;99.90;;;;;;10246316;28;84512;-52
2022/05/29 17:57:10;;;;;;;;;;;13.30;99.90;;;;;;10217348;28;85084;-53
2022/05/29 18:02:11;;;;;;;;;;;13.30;99.90;;;;;;10246505;28;84042;-54
2022/05/29 18:07:12;;;;;;;;;;;13.40;99.90;;;;;;10245970;28;83400;-52
2022/05/29 18:12:24;;;;;;;;;;;13.20;99.90;;;;;;10245397;28;83267;-52
2022/05/29 18:17:26;;;;;;;;;;;13.10;99.90;;;;;;10245440;28;84090;-56
2022/05/29 18:22:26;;;;;;;;;;;13.10;99.90;;;;;;10251704;28;83626;-54
2022/05/29 18:27:27;;;;;;;;;;;13.10;99.90;;;;;;10251720;28;84344;-51
2022/05/29 18:32:28;;;;;;;;;;;13.10;99.90;;;;;;10251517;28;83388;-53
2022/05/29 18:37:30;;;;;;;;;;;13.00;99.90;;;;;;10256075;28;83851;-53
2022/05/29 18:42:31;;;;;;;;;;;12.90;1.00;;;;;;10252962;28;86064;-60
2022/05/29 18:47:31;;;;;;;;;;;12.90;1.00;;;;;;10238341;28;86360;-57
2022/05/29 18:52:32;;;;;;;;;;;12.90;1.00;;;;;;10253612;28;84132;-54
2022/05/29 18:57:33;;;;;;;;;;;13.00;1.00;;;;;;10254059;28;83298;-53
2022/05/29 19:02:35;;;;;;;;;;;12.70;1.00;;;;;;10252932;28;83420;-58
2022/05/29 19:07:36;;;;;;;;;;;12.60;1.00;;;;;;10252592;28;83916;-54
2022/05/29 19:12:36;;;;;;;;;;;12.70;1.00;;;;;;10236075;28;83774;-50
2022/05/29 19:22:56;;;;;;;;;;;12.60;1.00;;;;;;10247997;28;83522;-50
2022/05/29 19:27:57;;;;;;;;;;;12.60;1.00;;;;;;10247264;28;83919;-49
2022/05/29 19:32:59;;;;;;;;;;;12.50;1.00;;;;;;10247138;28;85685;-51
2022/05/29 19:37:59;;;;;;;;;;;12.40;1.00;;;;;;10230870;28;84833;-50
2022/05/29 19:43:00;;;;;;;;;;;12.20;1.00;;;;;;10245513;28;83925;-52
2022/05/29 19:48:01;;;;;;;;;;;12.20;1.00;;;;;;10241447;28;83980;-54
2022/05/29 19:53:01;;;;;;;;;;;12.30;1.00;;;;;;10239877;28;83480;-50
2022/05/29 19:58:02;;;;;;;;;;;12.30;1.00;;;;;;10241770;28;84209;-50
2022/05/29 20:03:03;;;;;;;;;;;12.30;1.00;;;;;;10220329;28;84227;-57
2022/05/29 20:08:03;;;;;;;;;;;12.30;1.00;;;;;;10245376;28;83420;-55
2022/05/29 20:13:04;;;;;;;;;;;12.30;1.00;;;;;;10260100;28;84403;-51
2022/05/29 20:18:05;;;;;;;;;;;12.20;1.00;;;;;;10257959;28;84290;-53
2022/05/29 20:23:05;;;;;;;;;;;12.20;1.00;;;;;;10249047;28;83349;-49
2022/05/29 20:28:06;;;;;;;;;;;12.20;1.00;;;;;;10248980;28;83953;-52
2022/05/29 20:33:06;;;;;;;;;;;12.20;1.00;;;;;;10247949;28;83779;-53
2022/05/29 20:38:07;;;;;;;;;;;12.10;1.00;;;;;;10248267;28;83431;-54
2022/05/29 20:43:08;;;;;;;;;;;12.20;1.00;;;;;;10229506;28;86128;-51
2022/05/29 20:48:09;;;;;;;;;;;12.10;1.00;;;;;;10341656;23;85087;-44
2022/05/29 20:53:10;;;;;;;;;;;12.10;1.00;;;;;;10311678;28;85645;-46
2022/05/29 20:58:11;;;;;;;;;;;12.10;1.00;;;;;;10329062;28;84064;-45
2022/05/29 21:03:11;;;;;;;;;;;12.20;1.00;;;;;;10327598;28;84166;-46
2022/05/29 21:08:12;;;;;;;;;;;12.10;1.00;;;;;;10328629;28;84526;-45
2022/05/29 21:13:12;;;;;;;;;;;12.10;1.00;;;;;;10328603;28;84612;-43
2022/05/29 21:18:13;;;;;;;;;;;11.90;1.00;;;;;;10318574;28;84171;-46
2022/05/29 21:23:14;;;;;;;;;;;11.80;1.00;;;;;;10288488;28;84240;-47
2022/05/29 21:28:15;;;;;;;;;;;11.80;1.00;;;;;;10287951;28;83922;-44
2022/05/29 21:33:15;;;;;;;;;;;11.80;1.00;;;;;;10289198;28;83666;-45
2022/05/29 21:38:16;;;;;;;;;;;11.70;1.00;;;;;;10269984;28;86094;-45
2022/05/29 21:43:17;;;;;;;;;;;11.80;1.00;;;;;;10288209;28;84050;-45
2022/05/29 21:48:17;;;;;;;;;;;11.70;1.00;;;;;;10285821;28;84141;-45
2022/05/29 21:53:18;;;;;;;;;;;11.70;1.00;;;;;;10287323;28;84101;-43
2022/05/29 21:58:19;;;;;;;;;;;11.60;1.00;;;;;;10277766;28;85397;-43
2022/05/29 22:03:20;;;;;;;;;;;11.60;1.00;;;;;;10311710;28;84942;-45
2022/05/29 22:08:21;;;;;;;;;;;11.60;1.00;;;;;;10313887;28;84968;-49
2022/05/29 22:13:21;;;;;;;;;;;11.70;1.00;;;;;;10309701;28;84878;-44
2022/05/29 22:18:22;;;;;;;;;;;11.60;1.00;;;;;;10308342;28;84242;-43
2022/05/29 22:23:22;;;;;;;;;;;11.50;1.00;;;;;;10293275;28;84027;-44
2022/05/29 22:28:23;;;;;;;;;;;11.40;1.00;;;;;;10298015;28;84919;-48
2022/05/29 22:33:33;;;;;;;;;;;11.50;1.00;;;;;;10333452;28;84130;-49
2022/05/29 22:38:34;;;;;;;;;;;11.50;1.00;;;;;;10333225;28;84154;-43
2022/05/29 22:43:35;;;;;;;;;;;11.50;1.00;;;;;;10315314;28;84974;-47
2022/05/29 22:48:38;;;;;;;;;;;11.50;1.00;;;;;;10301719;28;84112;-43
2022/05/29 22:53:41;;;;;;;;;;;11.50;1.00;;;;;;10274590;28;84073;-44
2022/05/29 22:58:42;;;;;;;;;;;11.40;1.00;;;;;;10258874;28;86367;-45
2022/05/29 23:03:42;;;;;;;;;;;11.30;1.00;;;;;;10345484;28;84997;-43
2022/05/29 23:08:46;;;;;;;;;;;11.20;1.00;;;;;;10371663;28;84527;-45
2022/05/29 23:13:47;;;;;;;;;;;11.30;1.00;;;;;;10374915;28;84101;-44
2022/05/29 23:18:49;;;;;;;;;;;11.40;1.00;;;;;;10373227;28;84079;-44
2022/05/29 23:23:50;;;;;;;;;;;11.40;1.00;;;;;;10313607;28;85335;-43
2022/05/29 23:28:50;;;;;;;;;;;11.40;1.00;;;;;;10313192;28;85866;-44
2022/05/29 23:33:51;;;;;;;;;;;11.40;1.00;;;;;;10330737;28;84217;-44
2022/05/29 23:38:52;;;;;;;;;;;11.40;1.00;;;;;;10305512;28;84013;-45
2022/05/29 23:43:52;;;;;;;;;;;11.40;1.00;;;;;;10291251;28;85082;-48
2022/05/29 23:48:54;;;;;;;;;;;11.40;1.00;;;;;;10290224;28;84944;-47
2022/05/29 23:53:54;;;;;;;;;;;11.40;1.00;;;;;;10272294;28;84398;-43
2022/05/29 23:58:55;;;;;;;;;;;11.30;1.00;;;;;;10309241;28;85667;-46
